This demonstration page uses our WeatherBlox Daily Observations layout. Learn more.

39.29038, -76.61219

Hourly Observations for April 17, 2016

Temp ( °F °C ) Dew Point ( °F °C ) Humidity (%) Winds ( mph kmh ) Pressure ( in mb ) Visibility ( mi km ) Precip ( " mm )
12:54 am 00:54 undefined 54 12.2 39 3.9 57 57 undefined N/A 30.44 1031 N/A 0 0
1:54 am 01:54 undefined 53 11.7 31 -0.6 43 43 undefined N/A 30.45 1031 N/A 0 0
2:54 am 02:54 undefined 51 10.6 30 -1.1 44 44 undefined N/A 30.44 1031 N/A 0 0
3:54 am 03:54 undefined 50 10 31 -0.6 48 48 undefined N/A 30.44 1031 N/A 0 0
4:54 am 04:54 undefined 50 10 32 0 50 50 undefined N/A 30.44 1031 N/A 0 0
5:54 am 05:54 undefined 49 9.4 34 1.1 56 56 undefined N/A 30.45 1031 N/A 0 0
6:54 am 06:54 undefined 48 8.9 35 1.7 61 61 undefined N/A 30.47 1032 N/A 0 0
7:54 am 07:54 undefined 51 10.6 36 2.2 56 56 undefined N/A 30.48 1032 N/A 0 0
8:54 am 08:54 undefined 53 11.7 33 0.6 47 47 undefined N/A 30.48 1032 N/A 0 0
9:54 am 09:54 undefined 56 13.3 33 0.6 42 42 undefined N/A 30.48 1032 N/A 0 0
10:54 am 10:54 undefined 57 13.9 32 0 39 39 undefined N/A 30.48 1032 N/A 0 0
11:54 am 11:54 undefined 61 16.1 34 1.1 36 36 undefined N/A 30.46 1032 N/A 0 0
12:54 pm 12:54 undefined 63 17.2 34 1.1 34 34 undefined N/A 30.43 1030 N/A 0 0
1:54 pm 13:54 undefined 67 19.4 36 2.2 32 32 undefined N/A 30.4 1030 N/A 0 0
2:54 pm 14:54 undefined 70 21.1 38 3.3 31 31 undefined N/A 30.37 1028 N/A 0 0
3:54 pm 15:54 undefined 71 21.7 36 2.2 28 28 undefined N/A 30.34 1027 N/A 0 0
4:54 pm 16:54 undefined 70 21.1 38 3.3 31 31 undefined N/A 30.32 1027 N/A 0 0
5:54 pm 17:54 undefined 68 20 32 0 26 26 undefined N/A 30.31 1027 N/A 0 0
6:54 pm 18:54 undefined 67 19.4 34 1.1 30 30 undefined N/A 30.3 1026 N/A 0 0
7:54 pm 19:54 undefined 66 18.9 38 3.3 36 36 undefined N/A 30.3 1026 N/A 0 0
8:54 pm 20:54 undefined 64 17.8 39 3.9 40 40 undefined N/A 30.3 1026 N/A 0 0
9:54 pm 21:54 undefined 63 17.2 34 1.1 34 34 undefined N/A 30.3 1026 N/A 0 0
10:54 pm 22:54 undefined 61 16.1 32 0 34 34 undefined N/A 30.29 1026 N/A 0 0
11:54 pm 23:54 undefined 61 16.1 32 0 34 34 undefined N/A 30.29 1026 N/A 0 0

Powered by AerisWeather